Time;durP1;ratioP1;P1;durP2;ratioP2;P2;SDS_P1;SDS_P2;PMS_P1;PMS_P2;Temp;Humidity;BMP_temperature;BMP_pressure;BME280_temperature;BME280_humidity;BME280_pressure;Samples;Min_cycle;Max_cycle;Signal;HPM_P1;HPM_P2
2022/01/09 00:02:24;;;;;;;2.30;0.83;;;6.10;99.90;;;;;;4974799;28;20518;-61
2022/01/09 00:04:50;;;;;;;1.00;0.80;;;6.10;99.90;;;;;;4974762;28;20528;-61
2022/01/09 00:07:16;;;;;;;0.70;0.50;;;6.10;99.90;;;;;;4974006;28;20197;-61
2022/01/09 00:09:44;;;;;;;0.77;0.57;;;6.10;99.90;;;;;;4974657;28;20635;-61
2022/01/09 00:12:10;;;;;;;0.70;0.60;;;6.20;99.90;;;;;;4974727;28;20172;-61
2022/01/09 00:14:36;;;;;;;1.10;0.60;;;6.20;99.90;;;;;;4975084;28;20453;-59
2022/01/09 00:17:01;;;;;;;0.87;0.50;;;6.20;99.90;;;;;;4974531;28;20934;-60
2022/01/09 00:19:28;;;;;;;0.70;0.70;;;6.10;99.90;;;;;;4974628;28;20174;-61
2022/01/09 00:21:53;;;;;;;0.80;0.57;;;6.20;99.90;;;;;;4974601;28;20545;-60
2022/01/09 00:24:19;;;;;;;0.80;0.60;;;6.20;99.90;;;;;;4974238;28;20504;-60
2022/01/09 00:26:44;;;;;;;0.70;0.60;;;6.10;99.90;;;;;;4974179;28;20210;-60
2022/01/09 00:29:10;;;;;;;0.70;0.60;;;6.10;99.90;;;;;;4974362;28;20226;-61
2022/01/09 00:31:37;;;;;;;0.90;0.70;;;6.20;99.90;;;;;;4974368;28;20167;-61
2022/01/09 00:34:03;;;;;;;0.70;0.60;;;6.20;99.90;;;;;;4975235;28;20289;-60
2022/01/09 00:36:28;;;;;;;0.70;0.60;;;6.10;99.90;;;;;;4974165;28;20469;-61
2022/01/09 00:38:54;;;;;;;0.70;0.50;;;6.10;99.90;;;;;;4974354;28;20180;-61
2022/01/09 00:41:19;;;;;;;0.60;0.60;;;6.10;99.90;;;;;;4974142;28;20297;-61
2022/01/09 00:43:46;;;;;;;1.57;0.60;;;6.10;99.90;;;;;;4974013;28;20209;-61
2022/01/09 00:46:11;;;;;;;0.90;0.60;;;6.10;99.90;;;;;;4974279;28;20630;-61
2022/01/09 00:48:37;;;;;;;0.80;0.60;;;6.00;99.90;;;;;;4974914;28;20423;-61
2022/01/09 00:51:03;;;;;;;0.80;0.50;;;6.10;99.90;;;;;;4963047;28;20567;-61
2022/01/09 00:53:28;;;;;;;0.77;0.53;;;6.00;99.90;;;;;;4974038;28;20186;-61
2022/01/09 00:55:54;;;;;;;0.70;0.50;;;5.90;99.90;;;;;;4974230;28;20193;-61
2022/01/09 00:58:20;;;;;;;1.10;0.50;;;5.90;99.90;;;;;;4973827;28;20193;-61
2022/01/09 01:00:45;;;;;;;1.20;0.70;;;6.00;99.90;;;;;;4974186;28;20197;-61
2022/01/09 01:03:11;;;;;;;1.00;0.50;;;6.00;99.90;;;;;;4974146;28;20253;-61
2022/01/09 01:05:36;;;;;;;0.60;0.40;;;6.00;99.90;;;;;;4974473;28;20177;-61
2022/01/09 01:08:02;;;;;;;0.60;0.50;;;6.00;99.90;;;;;;4974354;28;20568;-60
2022/01/09 01:10:28;;;;;;;0.80;0.50;;;6.00;99.90;;;;;;4973923;28;20577;-61
2022/01/09 01:12:54;;;;;;;0.80;0.60;;;6.00;99.90;;;;;;4974000;28;20436;-61
2022/01/09 01:15:19;;;;;;;0.70;0.50;;;6.00;99.90;;;;;;4974088;28;20729;-61
2022/01/09 01:17:45;;;;;;;2.60;0.50;;;6.10;99.90;;;;;;4974288;28;20190;-60
2022/01/09 01:20:11;;;;;;;0.60;0.40;;;6.20;99.90;;;;;;4976340;28;20181;-60
2022/01/09 01:22:38;;;;;;;0.70;0.60;;;6.40;99.90;;;;;;4977697;28;20188;-61
2022/01/09 01:25:05;;;;;;;0.60;0.40;;;6.40;99.90;;;;;;4977044;28;20409;-61
2022/01/09 01:27:31;;;;;;;0.60;0.40;;;6.30;99.90;;;;;;4976941;28;20471;-59
2022/01/09 01:29:56;;;;;;;0.70;0.50;;;6.20;99.90;;;;;;4977927;28;20520;-60
2022/01/09 01:32:22;;;;;;;0.83;0.50;;;6.20;99.90;;;;;;4977527;28;20177;-61
2022/01/09 01:34:48;;;;;;;0.70;0.40;;;6.20;99.90;;;;;;4977199;28;20654;-60
2022/01/09 01:37:14;;;;;;;0.60;0.50;;;6.20;99.90;;;;;;4977326;28;20529;-59
2022/01/09 01:39:40;;;;;;;0.70;0.50;;;6.20;99.90;;;;;;4976730;28;20192;-61
2022/01/09 01:42:06;;;;;;;0.80;0.60;;;6.20;99.90;;;;;;4977116;28;20173;-62
2022/01/09 01:44:58;;;;;;;0.60;0.40;;;6.20;99.90;;;;;;4977128;28;20180;-61
2022/01/09 01:47:24;;;;;;;0.80;0.50;;;6.30;99.90;;;;;;4975056;28;20448;-60
2022/01/09 01:49:50;;;;;;;0.70;0.40;;;6.30;99.90;;;;;;4976952;28;20415;-62
2022/01/09 01:52:21;;;;;;;0.60;0.47;;;6.30;99.90;;;;;;4976527;28;20396;-61
2022/01/09 01:54:46;;;;;;;0.60;0.40;;;6.10;99.90;;;;;;4976892;28;20437;-62
2022/01/09 01:57:12;;;;;;;0.70;0.40;;;6.20;99.90;;;;;;4976454;28;20511;-60
2022/01/09 01:59:38;;;;;;;0.60;0.43;;;6.30;99.90;;;;;;4976726;28;20171;-60
2022/01/09 02:02:04;;;;;;;0.60;0.50;;;6.20;99.90;;;;;;4976933;28;20697;-59
2022/01/09 02:04:29;;;;;;;1.30;0.53;;;6.30;99.90;;;;;;4977320;28;20263;-59
2022/01/09 02:06:56;;;;;;;0.60;0.47;;;6.30;99.90;;;;;;4977225;28;20792;-60
2022/01/09 02:09:24;;;;;;;0.60;0.40;;;6.30;99.90;;;;;;4976756;28;20169;-58
2022/01/09 02:11:49;;;;;;;1.10;0.43;;;6.10;99.90;;;;;;4981005;28;20482;-61
2022/01/09 02:14:15;;;;;;;0.70;0.40;;;6.20;99.90;;;;;;4992276;28;20441;-61
2022/01/09 02:16:41;;;;;;;0.60;0.40;;;6.30;99.90;;;;;;4990959;28;20284;-61
2022/01/09 02:19:08;;;;;;;0.70;0.50;;;6.20;99.90;;;;;;4993408;28;20183;-59
2022/01/09 02:21:34;;;;;;;0.70;0.50;;;6.20;99.90;;;;;;4991951;28;20408;-60
2022/01/09 02:24:00;;;;;;;1.07;0.40;;;6.20;99.90;;;;;;4993252;28;20410;-60
2022/01/09 02:26:26;;;;;;;0.60;0.43;;;6.20;99.90;;;;;;4982534;28;20210;-62
2022/01/09 02:28:53;;;;;;;0.70;0.40;;;6.20;99.90;;;;;;4976679;28;20166;-62
2022/01/09 02:31:18;;;;;;;0.63;0.43;;;6.30;99.90;;;;;;4978699;28;20441;-62
2022/01/09 02:33:44;;;;;;;0.60;0.40;;;6.30;99.90;;;;;;4979525;28;20416;-62
2022/01/09 02:36:11;;;;;;;0.60;0.40;;;6.20;99.90;;;;;;4976725;28;20548;-62
2022/01/09 02:38:37;;;;;;;0.77;0.40;;;6.40;99.90;;;;;;4976810;28;21012;-61
2022/01/09 02:41:03;;;;;;;0.60;0.40;;;6.40;99.90;;;;;;4976377;28;20824;-62
2022/01/09 02:43:29;;;;;;;0.60;0.40;;;6.30;99.90;;;;;;4976963;28;20780;-62
2022/01/09 02:46:09;;;;;;;0.60;0.40;;;6.30;99.90;;;;;;4977188;28;20405;-61
2022/01/09 02:48:37;;;;;;;0.70;0.40;;;6.30;99.90;;;;;;4977102;28;20402;-62
2022/01/09 02:51:12;;;;;;;0.60;0.40;;;6.30;99.90;;;;;;4986503;28;20414;-62
2022/01/09 02:53:39;;;;;;;0.80;0.47;;;6.20;99.90;;;;;;4993393;28;20393;-62
2022/01/09 02:56:06;;;;;;;0.60;0.40;;;6.10;99.90;;;;;;4994658;28;20529;-62
2022/01/09 02:58:33;;;;;;;0.60;0.50;;;6.10;99.90;;;;;;4993871;28;20429;-62
2022/01/09 03:01:00;;;;;;;0.80;0.40;;;6.00;99.90;;;;;;4994162;28;20421;-60
2022/01/09 03:03:26;;;;;;;0.60;0.40;;;6.00;99.90;;;;;;4992075;28;20397;-62
2022/01/09 03:05:51;;;;;;;0.70;0.47;;;6.00;99.90;;;;;;4994371;28;20415;-62
2022/01/09 03:08:17;;;;;;;0.60;0.40;;;6.10;99.90;;;;;;4993557;28;20203;-61
2022/01/09 03:10:43;;;;;;;1.30;0.50;;;6.10;99.90;;;;;;4978950;28;20205;-62
2022/01/09 03:13:09;;;;;;;0.70;0.40;;;6.20;99.90;;;;;;4975153;28;20312;-62
2022/01/09 03:15:35;;;;;;;0.70;0.40;;;6.20;99.90;;;;;;4975159;28;20456;-59
2022/01/09 03:18:01;;;;;;;1.20;0.40;;;6.10;99.90;;;;;;4975167;28;20433;-62
2022/01/09 03:20:27;;;;;;;0.60;0.50;;;6.20;99.90;;;;;;4975533;28;20440;-62
2022/01/09 03:22:57;;;;;;;0.70;0.40;;;6.10;99.90;;;;;;4975177;28;20570;-62
2022/01/09 03:25:24;;;;;;;0.60;0.50;;;6.20;99.90;;;;;;4975066;28;20414;-62
2022/01/09 03:27:50;;;;;;;0.67;0.40;;;6.20;99.90;;;;;;4974650;28;20824;-61
2022/01/09 03:30:18;;;;;;;0.60;0.50;;;6.30;99.90;;;;;;4975289;28;20411;-62
2022/01/09 03:32:43;;;;;;;0.60;0.40;;;6.40;99.90;;;;;;4975358;28;20206;-62
2022/01/09 03:35:12;;;;;;;0.80;0.40;;;6.40;99.90;;;;;;4974982;28;20453;-62
2022/01/09 03:37:40;;;;;;;0.90;0.57;;;6.50;99.90;;;;;;4975204;28;20185;-61
2022/01/09 03:40:08;;;;;;;0.60;0.43;;;6.40;99.90;;;;;;4975062;28;20404;-61
2022/01/09 03:42:34;;;;;;;0.60;0.40;;;6.40;99.90;;;;;;4971426;28;20468;-62
2022/01/09 03:45:00;;;;;;;0.70;0.50;;;6.40;99.90;;;;;;4966568;28;20429;-62
2022/01/09 03:47:25;;;;;;;0.60;0.40;;;6.30;99.90;;;;;;4975306;28;20198;-62
2022/01/09 03:49:52;;;;;;;0.67;0.43;;;6.30;99.90;;;;;;4974886;28;20173;-62
2022/01/09 03:52:18;;;;;;;0.63;0.40;;;6.30;99.90;;;;;;4975234;28;20222;-62
2022/01/09 03:54:43;;;;;;;0.70;0.43;;;6.40;99.90;;;;;;4974834;28;20460;-62
2022/01/09 03:57:09;;;;;;;0.80;0.50;;;6.40;99.90;;;;;;5002604;23;20604;-60
2022/01/09 03:59:35;;;;;;;0.93;0.50;;;6.40;99.90;;;;;;4992203;28;20172;-60
2022/01/09 04:02:00;;;;;;;0.80;0.50;;;6.40;99.90;;;;;;4993626;28;20178;-60
2022/01/09 04:04:26;;;;;;;1.47;0.50;;;6.60;99.90;;;;;;4993936;28;20174;-60
2022/01/09 04:06:52;;;;;;;0.60;0.40;;;6.60;99.90;;;;;;4993629;28;20206;-62
2022/01/09 04:09:28;;;;;;;0.60;0.50;;;6.70;99.90;;;;;;4993968;28;20894;-60
2022/01/09 04:12:03;;;;;;;1.10;0.60;;;6.70;99.90;;;;;;4993543;28;20520;-60
2022/01/09 04:14:28;;;;;;;1.37;0.40;;;6.70;99.90;;;;;;4993315;28;20881;-60
2022/01/09 04:16:54;;;;;;;0.90;0.57;;;6.60;99.90;;;;;;4993633;28;20556;-60
2022/01/09 04:19:20;;;;;;;1.00;0.40;;;6.80;99.90;;;;;;4993818;28;20179;-60
2022/01/09 04:21:46;;;;;;;0.70;0.50;;;6.80;99.90;;;;;;4993540;28;20174;-60
2022/01/09 04:24:11;;;;;;;0.60;0.50;;;6.60;99.90;;;;;;4993628;28;20208;-60
2022/01/09 04:26:37;;;;;;;1.10;0.50;;;6.50;99.90;;;;;;4993233;28;20288;-60
2022/01/09 04:29:04;;;;;;;0.70;0.57;;;6.50;99.90;;;;;;4993330;28;20185;-59
2022/01/09 04:31:31;;;;;;;0.70;0.50;;;6.50;99.90;;;;;;4993464;28;20403;-60
2022/01/09 04:33:56;;;;;;;0.67;0.47;;;6.30;99.90;;;;;;4993722;28;20478;-61
2022/01/09 04:36:23;;;;;;;0.67;0.40;;;6.50;99.90;;;;;;4993345;28;20459;-61
2022/01/09 04:38:48;;;;;;;0.70;0.47;;;6.70;99.90;;;;;;4993583;28;20190;-61
2022/01/09 04:41:15;;;;;;;1.20;0.73;;;6.70;99.90;;;;;;4993713;28;20409;-60
2022/01/09 04:43:42;;;;;;;0.60;0.40;;;6.60;99.90;;;;;;4993322;28;20408;-61
2022/01/09 04:46:09;;;;;;;0.70;0.50;;;6.40;99.90;;;;;;4993592;28;20408;-61
2022/01/09 04:48:35;;;;;;;1.10;0.50;;;6.30;99.90;;;;;;4993448;28;20440;-58
2022/01/09 04:51:01;;;;;;;0.80;0.40;;;6.30;99.90;;;;;;4993552;28;20450;-61
2022/01/09 04:53:26;;;;;;;0.70;0.60;;;6.20;99.90;;;;;;4994561;28;20178;-60
2022/01/09 04:55:52;;;;;;;0.87;0.50;;;6.20;99.90;;;;;;4996969;28;20208;-61
2022/01/09 04:58:19;;;;;;;0.60;0.40;;;6.20;99.90;;;;;;4996729;28;20209;-60
2022/01/09 05:00:45;;;;;;;0.70;0.50;;;5.90;99.90;;;;;;4979381;28;20184;-59
2022/01/09 05:03:13;;;;;;;0.80;0.40;;;5.80;99.90;;;;;;4997189;28;20411;-59
2022/01/09 05:05:39;;;;;;;0.60;0.50;;;5.80;99.90;;;;;;4997076;28;20419;-60
2022/01/09 05:08:04;;;;;;;0.60;0.40;;;5.70;99.90;;;;;;4996755;28;20515;-59
2022/01/09 05:10:30;;;;;;;0.60;0.43;;;5.50;99.90;;;;;;4996658;28;20177;-60
2022/01/09 05:12:56;;;;;;;0.60;0.47;;;5.50;99.90;;;;;;4996545;28;20255;-60
2022/01/09 05:15:23;;;;;;;0.70;0.50;;;5.50;99.90;;;;;;4996722;28;20583;-60
2022/01/09 05:17:51;;;;;;;0.60;0.40;;;5.50;99.90;;;;;;4997405;28;20193;-59
2022/01/09 05:20:16;;;;;;;2.00;0.50;;;5.50;99.90;;;;;;4996849;28;20416;-60
2022/01/09 05:22:42;;;;;;;1.53;0.47;;;5.40;99.90;;;;;;4997133;28;20419;-60
2022/01/09 05:25:08;;;;;;;1.13;0.50;;;5.40;99.90;;;;;;4997316;28;20180;-60
2022/01/09 05:27:35;;;;;;;0.60;0.40;;;5.30;99.90;;;;;;4996277;28;20215;-59
2022/01/09 05:30:01;;;;;;;0.60;0.40;;;5.20;99.90;;;;;;4996606;28;20408;-58
2022/01/09 05:32:27;;;;;;;0.70;0.40;;;5.20;99.90;;;;;;4996825;28;20404;-57
2022/01/09 05:34:53;;;;;;;0.60;0.50;;;5.20;99.90;;;;;;4996220;28;20451;-59
2022/01/09 05:37:18;;;;;;;0.60;0.40;;;5.20;99.90;;;;;;4996394;28;20193;-60
2022/01/09 05:39:44;;;;;;;0.80;0.40;;;5.10;99.90;;;;;;4996185;28;20177;-60
2022/01/09 05:42:12;;;;;;;0.60;0.40;;;5.10;99.90;;;;;;4996156;28;20653;-61
2022/01/09 05:44:37;;;;;;;0.60;0.40;;;5.10;99.90;;;;;;4996079;28;20179;-60
2022/01/09 05:47:04;;;;;;;0.60;0.40;;;5.00;99.90;;;;;;4996359;28;20518;-58
2022/01/09 05:49:30;;;;;;;0.70;0.40;;;5.00;99.90;;;;;;4996329;28;20168;-57
2022/01/09 05:51:56;;;;;;;0.60;0.40;;;5.00;99.90;;;;;;4996520;28;20404;-59
2022/01/09 05:54:21;;;;;;;0.60;0.40;;;4.90;99.90;;;;;;4996482;28;20431;-60
2022/01/09 05:56:47;;;;;;;0.60;0.40;;;4.90;99.90;;;;;;4995609;28;20459;-60
2022/01/09 05:59:13;;;;;;;0.80;0.40;;;4.90;99.90;;;;;;4995756;28;20197;-60
2022/01/09 06:01:39;;;;;;;0.60;0.40;;;4.90;99.90;;;;;;4995847;28;20194;-60
2022/01/09 06:04:05;;;;;;;0.83;0.50;;;4.90;99.90;;;;;;4995626;28;20173;-60
2022/01/09 06:06:32;;;;;;;0.70;0.50;;;4.80;99.90;;;;;;4994915;28;20407;-59
2022/01/09 06:08:58;;;;;;;0.80;0.50;;;4.90;99.90;;;;;;4995949;28;20427;-60
2022/01/09 06:11:23;;;;;;;0.60;0.43;;;5.00;99.90;;;;;;4995482;28;20412;-60
2022/01/09 06:13:49;;;;;;;1.47;0.53;;;4.90;99.90;;;;;;4995567;28;20470;-60
2022/01/09 06:16:14;;;;;;;0.80;0.50;;;4.90;99.90;;;;;;4995783;28;20208;-61
2022/01/09 06:18:40;;;;;;;1.13;0.83;;;4.90;99.90;;;;;;4995501;28;20191;-60
2022/01/09 06:21:06;;;;;;;1.10;0.47;;;4.80;99.90;;;;;;4995506;28;20656;-60
2022/01/09 06:23:31;;;;;;;0.77;0.50;;;4.90;99.90;;;;;;4995430;28;20177;-55
2022/01/09 06:25:57;;;;;;;0.70;0.50;;;4.90;99.90;;;;;;4995176;28;20180;-58
2022/01/09 06:28:23;;;;;;;0.70;0.50;;;5.00;99.90;;;;;;4994954;28;20205;-60
2022/01/09 06:30:49;;;;;;;1.03;0.50;;;5.10;99.90;;;;;;4995941;28;20835;-61
2022/01/09 06:33:14;;;;;;;0.70;0.60;;;5.00;99.90;;;;;;4995242;28;20259;-60
2022/01/09 06:35:40;;;;;;;0.90;0.50;;;5.00;99.90;;;;;;4992056;28;20239;-59
2022/01/09 06:38:07;;;;;;;0.90;0.60;;;5.10;99.90;;;;;;4986504;28;20207;-60
2022/01/09 06:40:34;;;;;;;1.70;0.63;;;5.00;99.90;;;;;;4994960;28;20288;-60
2022/01/09 06:42:59;;;;;;;0.70;0.50;;;5.20;99.90;;;;;;4994849;28;20896;-58
2022/01/09 06:45:27;;;;;;;0.60;0.50;;;5.10;99.90;;;;;;4994989;28;20499;-61
2022/01/09 06:47:54;;;;;;;0.70;0.50;;;5.10;99.90;;;;;;4995150;28;20299;-60
2022/01/09 06:50:20;;;;;;;1.37;0.70;;;5.10;99.90;;;;;;4995201;28;20450;-57
2022/01/09 06:52:45;;;;;;;0.70;0.50;;;5.10;99.90;;;;;;4994959;28;20403;-58
2022/01/09 06:55:12;;;;;;;0.77;0.50;;;5.10;99.90;;;;;;4995187;28;20223;-60
2022/01/09 06:57:37;;;;;;;0.90;0.73;;;5.00;99.90;;;;;;4977009;28;20700;-58
2022/01/09 07:00:05;;;;;;;0.80;0.60;;;5.20;99.90;;;;;;4994994;28;20442;-60
2022/01/09 07:02:30;;;;;;;0.70;0.50;;;5.10;99.90;;;;;;4994266;28;20417;-61
2022/01/09 07:04:56;;;;;;;0.80;0.50;;;5.30;99.90;;;;;;4993959;28;20557;-60
2022/01/09 07:07:21;;;;;;;0.97;0.67;;;5.40;99.90;;;;;;4994586;28;20196;-61
2022/01/09 07:09:47;;;;;;;0.73;0.60;;;5.40;99.90;;;;;;4994561;28;20201;-61
2022/01/09 07:12:13;;;;;;;0.70;0.50;;;5.30;99.90;;;;;;4994589;28;20173;-58
2022/01/09 07:14:38;;;;;;;0.73;0.63;;;5.10;99.90;;;;;;4994492;28;20664;-61
2022/01/09 07:17:04;;;;;;;0.70;0.57;;;5.30;99.90;;;;;;4976944;28;20189;-61
2022/01/09 07:19:30;;;;;;;0.70;0.50;;;5.20;99.90;;;;;;4994422;28;20192;-61
2022/01/09 07:21:55;;;;;;;0.70;0.60;;;5.00;99.90;;;;;;4994610;28;20211;-61
2022/01/09 07:24:21;;;;;;;0.80;0.50;;;5.00;99.90;;;;;;4994886;28;20196;-59
2022/01/09 07:26:47;;;;;;;1.40;0.53;;;5.20;99.90;;;;;;4993874;28;20180;-61
2022/01/09 07:29:13;;;;;;;0.90;0.60;;;5.20;99.90;;;;;;4993654;28;20177;-61
2022/01/09 07:31:38;;;;;;;0.60;0.50;;;5.10;99.90;;;;;;4994174;28;20638;-61
2022/01/09 07:34:04;;;;;;;1.20;0.67;;;5.20;99.90;;;;;;4993010;28;20935;-60
2022/01/09 07:36:30;;;;;;;3.03;0.90;;;5.10;99.90;;;;;;4994027;28;20193;-61
2022/01/09 07:38:55;;;;;;;1.03;0.80;;;5.20;99.90;;;;;;4993936;28;20188;-59
2022/01/09 07:41:21;;;;;;;2.60;1.27;;;5.20;99.90;;;;;;4993733;28;20456;-59
2022/01/09 07:43:47;;;;;;;4.70;1.33;;;5.20;99.90;;;;;;4993951;28;20169;-59
2022/01/09 07:46:13;;;;;;;2.90;1.07;;;5.10;99.90;;;;;;4994628;28;20644;-58
2022/01/09 07:48:39;;;;;;;2.47;1.50;;;5.00;99.90;;;;;;4994668;28;20435;-60
2022/01/09 07:51:05;;;;;;;4.07;1.70;;;4.90;99.90;;;;;;4993864;28;20990;-57
2022/01/09 07:53:31;;;;;;;1.83;1.17;;;5.00;99.90;;;;;;4993869;28;20410;-58
2022/01/09 07:55:57;;;;;;;6.10;2.10;;;5.00;99.90;;;;;;4993466;28;20956;-59
2022/01/09 07:58:23;;;;;;;9.80;1.70;;;5.00;99.90;;;;;;4993303;28;20467;-57
2022/01/09 08:00:48;;;;;;;1.47;1.23;;;5.00;99.90;;;;;;4993799;28;20400;-60
2022/01/09 08:03:15;;;;;;;3.40;1.43;;;5.10;99.90;;;;;;4993803;28;20192;-59
2022/01/09 08:05:41;;;;;;;7.33;2.03;;;5.10;99.90;;;;;;4993645;28;20712;-60
2022/01/09 08:08:07;;;;;;;5.93;1.90;;;5.20;99.90;;;;;;4993056;28;20460;-60
2022/01/09 08:10:32;;;;;;;3.30;1.80;;;5.30;99.90;;;;;;4993435;28;20657;-60
2022/01/09 08:13:00;;;;;;;8.40;1.93;;;5.20;99.90;;;;;;4993721;28;20408;-59
2022/01/09 08:15:28;;;;;;;5.90;1.90;;;5.20;99.90;;;;;;4993760;28;20226;-60
2022/01/09 08:17:54;;;;;;;6.20;1.83;;;5.30;99.90;;;;;;4993584;28;20428;-60
2022/01/09 08:20:20;;;;;;;2.13;1.47;;;5.30;99.90;;;;;;4993618;28;20419;-59
2022/01/09 08:22:47;;;;;;;3.60;1.87;;;5.20;99.90;;;;;;4983154;28;20173;-60
2022/01/09 08:25:16;;;;;;;3.80;1.50;;;5.20;99.90;;;;;;4992387;28;20420;-59
2022/01/09 08:27:43;;;;;;;3.87;1.60;;;5.30;99.90;;;;;;4993275;28;20450;-59
2022/01/09 08:30:11;;;;;;;4.50;1.53;;;5.30;99.90;;;;;;4997667;28;20775;-58
2022/01/09 08:32:37;;;;;;;4.13;1.77;;;5.30;99.90;;;;;;4997748;28;20408;-60
2022/01/09 08:35:04;;;;;;;4.53;1.60;;;5.30;99.90;;;;;;4997742;28;20490;-58
2022/01/09 08:37:29;;;;;;;6.27;1.70;;;5.30;99.90;;;;;;4997666;28;20428;-60
2022/01/09 08:39:55;;;;;;;4.40;1.87;;;5.30;99.90;;;;;;4996979;28;20916;-60
2022/01/09 08:42:21;;;;;;;5.83;1.83;;;5.40;99.90;;;;;;4997611;28;20179;-59
2022/01/09 08:44:46;;;;;;;3.53;1.57;;;5.30;99.90;;;;;;4996764;28;20219;-60
2022/01/09 08:47:12;;;;;;;5.10;1.60;;;5.30;99.90;;;;;;4997293;28;20192;-60
2022/01/09 08:49:38;;;;;;;5.57;2.03;;;5.40;99.90;;;;;;4997417;28;20621;-60
2022/01/09 08:52:04;;;;;;;4.00;1.30;;;5.30;99.90;;;;;;4997218;28;20164;-60
2022/01/09 08:54:30;;;;;;;4.33;1.60;;;5.30;99.90;;;;;;4996869;28;20172;-60
2022/01/09 08:56:57;;;;;;;7.00;2.00;;;5.30;99.90;;;;;;4996927;28;20494;-60
2022/01/09 08:59:23;;;;;;;4.40;1.60;;;5.40;99.90;;;;;;4996859;28;20411;-60
2022/01/09 09:01:49;;;;;;;5.83;1.50;;;5.40;99.90;;;;;;4996984;28;20446;-60
2022/01/09 09:04:15;;;;;;;7.63;1.60;;;5.50;99.90;;;;;;4996946;28;20280;-60
2022/01/09 09:06:41;;;;;;;5.43;1.87;;;5.50;99.90;;;;;;4996850;28;20444;-60
2022/01/09 09:09:08;;;;;;;5.70;2.00;;;5.50;99.90;;;;;;4996885;28;20427;-60
2022/01/09 09:11:34;;;;;;;3.30;1.70;;;5.60;99.90;;;;;;4996625;28;20710;-60
2022/01/09 09:14:02;;;;;;;3.87;1.53;;;5.80;99.90;;;;;;4996696;28;20407;-60
2022/01/09 09:16:28;;;;;;;4.73;1.57;;;5.70;99.90;;;;;;4995555;28;20460;-60
2022/01/09 09:18:53;;;;;;;5.70;1.60;;;5.70;99.90;;;;;;4993605;28;20446;-60
2022/01/09 09:21:19;;;;;;;4.83;2.30;;;5.80;99.90;;;;;;4979001;28;20425;-60
2022/01/09 09:23:45;;;;;;;6.50;2.63;;;5.80;99.90;;;;;;4977463;28;20673;-61
2022/01/09 09:26:11;;;;;;;3.07;1.90;;;5.90;99.90;;;;;;4981061;28;21000;-60
2022/01/09 09:28:37;;;;;;;6.17;1.67;;;5.90;99.90;;;;;;4994813;28;20444;-60
2022/01/09 09:31:03;;;;;;;6.50;1.83;;;6.00;99.90;;;;;;4996741;28;20169;-61
2022/01/09 09:33:29;;;;;;;5.03;1.80;;;6.20;99.90;;;;;;4992056;28;20435;-58
2022/01/09 09:35:58;;;;;;;8.20;1.93;;;6.30;99.90;;;;;;4995999;28;20444;-59
2022/01/09 09:38:24;;;;;;;10.87;2.73;;;6.40;99.90;;;;;;4995527;28;20201;-60
2022/01/09 09:40:50;;;;;;;7.33;3.10;;;6.60;99.90;;;;;;4994829;28;20409;-60
2022/01/09 09:43:16;;;;;;;4.37;2.00;;;6.70;99.90;;;;;;4996307;28;20425;-61
2022/01/09 09:45:42;;;;;;;5.33;2.00;;;6.40;99.90;;;;;;4994329;28;20198;-61
2022/01/09 09:48:08;;;;;;;9.50;2.70;;;6.30;99.90;;;;;;4996078;28;20792;-61
2022/01/09 09:50:34;;;;;;;6.33;1.67;;;6.40;99.90;;;;;;4996326;28;20451;-61
2022/01/09 09:53:01;;;;;;;10.20;2.37;;;6.20;99.90;;;;;;4996039;28;20635;-61
2022/01/09 09:55:27;;;;;;;8.13;1.73;;;6.10;99.90;;;;;;4995834;28;20284;-58
2022/01/09 09:57:53;;;;;;;8.50;2.33;;;6.00;99.90;;;;;;5023343;23;20499;-55
2022/01/09 10:00:20;;;;;;;4.13;1.90;;;6.10;99.90;;;;;;5015753;28;20783;-58
2022/01/09 10:02:55;;;;;;;5.37;2.87;;;6.20;99.90;;;;;;5015701;28;20633;-59
2022/01/09 10:05:24;;;;;;;6.57;2.13;;;6.50;99.90;;;;;;5015323;28;20479;-59
2022/01/09 10:07:54;;;;;;;5.10;2.03;;;6.70;99.90;;;;;;5015442;28;20526;-59
2022/01/09 10:10:29;;;;;;;5.53;2.10;;;6.70;99.90;;;;;;5016076;28;20471;-59
2022/01/09 10:13:08;;;;;;;7.37;3.97;;;6.90;99.90;;;;;;5015528;28;20904;-58
2022/01/09 10:15:43;;;;;;;8.07;2.00;;;7.00;99.90;;;;;;5016087;28;20442;-58
2022/01/09 10:18:09;;;;;;;8.73;3.40;;;7.00;99.90;;;;;;4996260;28;20474;-60
2022/01/09 10:20:35;;;;;;;4.77;2.60;;;6.80;99.90;;;;;;4995971;28;20406;-59
2022/01/09 10:23:00;;;;;;;4.60;1.70;;;6.60;99.90;;;;;;4996034;28;20654;-59
2022/01/09 10:25:37;;;;;;;7.10;2.00;;;6.50;99.90;;;;;;4995862;28;20171;-59
2022/01/09 10:28:16;;;;;;;9.50;2.30;;;6.40;99.90;;;;;;5002067;28;20266;-58
2022/01/09 10:30:49;;;;;;;6.40;2.20;;;6.30;99.90;;;;;;5015762;28;20418;-59
2022/01/09 10:33:25;;;;;;;7.53;2.37;;;6.40;99.90;;;;;;5015394;28;20958;-59
2022/01/09 10:35:50;;;;;;;8.53;2.10;;;6.40;99.90;;;;;;5015540;28;20790;-59
2022/01/09 10:38:22;;;;;;;4.67;2.20;;;6.90;99.90;;;;;;5015258;28;20433;-59
2022/01/09 10:40:55;;;;;;;5.37;2.40;;;7.20;99.90;;;;;;5015186;28;20242;-56
2022/01/09 10:43:24;;;;;;;8.37;3.00;;;7.30;99.90;;;;;;4997188;28;20409;-58
2022/01/09 10:46:00;;;;;;;3.93;1.97;;;7.40;99.90;;;;;;5015208;28;20413;-60
2022/01/09 10:48:33;;;;;;;6.60;2.93;;;7.50;99.90;;;;;;5014957;28;20455;-60
2022/01/09 10:51:01;;;;;;;4.13;2.30;;;7.20;99.90;;;;;;5015186;28;20393;-59
2022/01/09 10:53:31;;;;;;;4.87;1.87;;;6.90;99.90;;;;;;5014732;28;20420;-60
2022/01/09 10:56:08;;;;;;;7.10;2.30;;;6.80;99.90;;;;;;5014453;28;20440;-58
2022/01/09 10:58:40;;;;;;;5.30;2.03;;;6.70;99.90;;;;;;5014477;28;20956;-59
2022/01/09 11:01:33;;;;;;;6.20;2.30;;;6.80;99.90;;;;;;5014669;28;20474;-59
2022/01/09 11:03:59;;;;;;;6.40;2.43;;;6.80;99.90;;;;;;5014929;28;20389;-60
2022/01/09 11:06:31;;;;;;;5.70;2.53;;;6.90;99.90;;;;;;5014920;28;20416;-60
2022/01/09 11:08:57;;;;;;;8.33;2.73;;;7.20;99.90;;;;;;5014948;28;20423;-60
2022/01/09 11:14:04;;;;;;;5.40;2.87;;;7.50;99.90;;;;;;5014956;28;20397;-60
2022/01/09 11:16:34;;;;;;;4.30;1.90;;;8.10;99.90;;;;;;5014349;28;20489;-60
2022/01/09 11:19:10;;;;;;;3.23;1.90;;;9.50;99.90;;;;;;5014293;28;20555;-60
2022/01/09 11:21:39;;;;;;;5.13;2.50;;;10.10;99.90;;;;;;5014449;28;20474;-60
2022/01/09 11:24:08;;;;;;;28.93;15.30;;;10.50;99.90;;;;;;5014480;28;20564;-60
2022/01/09 11:26:55;;;;;;;6.03;2.30;;;9.50;99.90;;;;;;5014124;28;20770;-60
2022/01/09 11:29:50;;;;;;;19.03;8.60;;;8.40;99.90;;;;;;5014016;28;20480;-60
2022/01/09 11:32:42;;;;;;;39.57;19.30;;;8.20;99.90;;;;;;4993668;28;20418;-60
2022/01/09 11:35:34;;;;;;;67.80;31.37;;;7.50;99.90;;;;;;5014161;28;20433;-60
2022/01/09 11:38:23;;;;;;;17.13;7.93;;;7.30;99.90;;;;;;5014251;28;20487;-60
2022/01/09 11:40:49;;;;;;;58.87;32.47;;;7.30;99.90;;;;;;5014083;28;20396;-60
2022/01/09 11:43:17;;;;;;;20.77;10.73;;;7.40;99.90;;;;;;5014413;28;20747;-60
2022/01/09 11:45:48;;;;;;;8.37;5.10;;;7.70;99.90;;;;;;5014219;28;20167;-60
2022/01/09 11:48:16;;;;;;;4.87;2.53;;;8.90;99.90;;;;;;5014275;28;20425;-58
2022/01/09 11:51:13;;;;;;;5.10;2.07;;;9.30;99.90;;;;;;5014204;28;20462;-60
2022/01/09 11:54:05;;;;;;;8.47;4.50;;;9.90;99.90;;;;;;5014169;28;20399;-61
2022/01/09 11:56:54;;;;;;;3.00;2.60;;;9.60;99.90;;;;;;5013709;28;20441;-60
2022/01/09 11:59:37;;;;;;;9.90;4.50;;;9.00;99.90;;;;;;5013327;28;20453;-60
2022/01/09 12:02:28;;;;;;;4.83;3.17;;;8.80;99.90;;;;;;5013994;28;20866;-60
2022/01/09 12:04:56;;;;;;;14.83;11.33;;;8.70;99.90;;;;;;5013388;28;20416;-60
2022/01/09 12:07:36;;;;;;;7.63;3.83;;;8.50;99.90;;;;;;5013812;28;20505;-60
2022/01/09 12:10:17;;;;;;;7.70;3.40;;;8.40;99.90;;;;;;5013079;28;20403;-58
2022/01/09 12:12:42;;;;;;;5.93;2.70;;;8.00;99.90;;;;;;5013398;28;20771;-60
2022/01/09 12:15:09;;;;;;;3.00;1.37;;;8.40;99.90;;;;;;5013752;28;20446;-59
2022/01/09 12:17:38;;;;;;;11.60;7.40;;;8.90;99.90;;;;;;5013688;28;20220;-59
2022/01/09 12:20:13;;;;;;;3.20;1.70;;;8.90;99.90;;;;;;5013843;28;20408;-60
2022/01/09 12:25:36;;;;;;;5.00;4.27;;;8.60;99.90;;;;;;5013240;28;20403;-61
2022/01/09 12:28:33;;;;;;;9.40;4.60;;;8.20;99.90;;;;;;5013186;28;20441;-60
2022/01/09 12:31:00;;;;;;;4.60;2.10;;;8.30;99.90;;;;;;5013533;28;20398;-61
2022/01/09 12:33:27;;;;;;;6.00;2.27;;;8.30;99.90;;;;;;5013634;28;20426;-60
2022/01/09 12:36:06;;;;;;;6.90;2.20;;;8.40;99.90;;;;;;5013214;28;20453;-60
2022/01/09 12:38:36;;;;;;;4.83;2.50;;;8.50;99.90;;;;;;5013601;28;20429;-61
2022/01/09 12:41:16;;;;;;;3.27;1.93;;;8.40;99.90;;;;;;5013256;28;20478;-60
2022/01/09 12:43:42;;;;;;;8.17;2.20;;;8.40;99.90;;;;;;5013214;28;20406;-60
2022/01/09 12:46:18;;;;;;;3.80;1.70;;;8.20;99.90;;;;;;5013678;28;20473;-60
2022/01/09 12:48:55;;;;;;;7.90;2.40;;;8.00;99.90;;;;;;5013612;28;20417;-60
2022/01/09 12:51:21;;;;;;;5.87;1.80;;;7.90;99.90;;;;;;5012278;28;20465;-58
2022/01/09 12:53:55;;;;;;;5.97;2.60;;;7.90;99.90;;;;;;5013738;28;20471;-60
2022/01/09 12:56:25;;;;;;;3.50;1.67;;;7.80;99.90;;;;;;4995235;28;20837;-61
2022/01/09 12:58:52;;;;;;;3.83;1.60;;;7.90;99.90;;;;;;5012669;28;20464;-60
2022/01/09 13:01:41;;;;;;;1.80;1.27;;;7.90;99.90;;;;;;4995654;28;20484;-59
2022/01/09 13:04:10;;;;;;;4.93;2.10;;;7.90;99.90;;;;;;5006952;28;20429;-60
2022/01/09 13:06:38;;;;;;;5.30;1.70;;;7.90;99.90;;;;;;5013563;28;20414;-60